sensor_id;sensor_type;location;lat;lon;timestamp;temperature;humidity
2855;DHT22;1435;49.472;10.940;2024-01-15T00:01:42;-1.70;99.90
2855;DHT22;1435;49.472;10.940;2024-01-15T00:06:45;-1.60;99.90
2855;DHT22;1435;49.472;10.940;2024-01-15T00:11:47;-1.50;99.90
2855;DHT22;1435;49.472;10.940;2024-01-15T00:16:49;-1.70;99.90
2855;DHT22;1435;49.472;10.940;2024-01-15T00:21:53;-1.70;99.90
2855;DHT22;1435;49.472;10.940;2024-01-15T00:26:54;-1.50;99.90
2855;DHT22;1435;49.472;10.940;2024-01-15T00:31:57;-1.50;99.90
2855;DHT22;1435;49.472;10.940;2024-01-15T00:37:00;-1.60;99.90
2855;DHT22;1435;49.472;10.940;2024-01-15T00:42:01;-1.60;99.90
2855;DHT22;1435;49.472;10.940;2024-01-15T00:47:03;-1.70;99.90
2855;DHT22;1435;49.472;10.940;2024-01-15T00:52:06;-1.60;99.90
2855;DHT22;1435;49.472;10.940;2024-01-15T00:57:08;-1.80;99.90
2855;DHT22;1435;49.472;10.940;2024-01-15T01:02:10;-2.00;99.90
2855;DHT22;1435;49.472;10.940;2024-01-15T01:07:13;-2.00;99.90
2855;DHT22;1435;49.472;10.940;2024-01-15T01:12:15;-2.00;99.90
2855;DHT22;1435;49.472;10.940;2024-01-15T01:17:17;-2.00;99.90
2855;DHT22;1435;49.472;10.940;2024-01-15T01:22:20;-2.10;99.90
2855;DHT22;1435;49.472;10.940;2024-01-15T01:27:21;-2.10;99.90
2855;DHT22;1435;49.472;10.940;2024-01-15T01:32:23;-1.90;99.90
2855;DHT22;1435;49.472;10.940;2024-01-15T01:37:26;-1.80;99.90
2855;DHT22;1435;49.472;10.940;2024-01-15T01:42:28;-1.70;99.90
2855;DHT22;1435;49.472;10.940;2024-01-15T01:47:30;-1.80;99.90
2855;DHT22;1435;49.472;10.940;2024-01-15T01:52:33;-1.80;99.90
2855;DHT22;1435;49.472;10.940;2024-01-15T01:57:35;-1.80;99.90
2855;DHT22;1435;49.472;10.940;2024-01-15T02:02:37;-1.90;99.90
2855;DHT22;1435;49.472;10.940;2024-01-15T02:07:41;-1.90;99.90
2855;DHT22;1435;49.472;10.940;2024-01-15T02:12:42;-1.80;99.90
2855;DHT22;1435;49.472;10.940;2024-01-15T02:17:58;-1.90;99.90
2855;DHT22;1435;49.472;10.940;2024-01-15T02:23:08;-1.70;99.90
2855;DHT22;1435;49.472;10.940;2024-01-15T02:28:12;-1.80;99.90
2855;DHT22;1435;49.472;10.940;2024-01-15T02:33:14;-1.80;99.90
2855;DHT22;1435;49.472;10.940;2024-01-15T02:38:17;-1.60;99.90
2855;DHT22;1435;49.472;10.940;2024-01-15T02:43:19;-1.60;99.90
2855;DHT22;1435;49.472;10.940;2024-01-15T02:48:21;-1.60;99.90
2855;DHT22;1435;49.472;10.940;2024-01-15T02:53:24;-1.50;99.90
2855;DHT22;1435;49.472;10.940;2024-01-15T02:58:25;-1.50;99.90
2855;DHT22;1435;49.472;10.940;2024-01-15T03:03:27;-1.50;99.90
2855;DHT22;1435;49.472;10.940;2024-01-15T03:08:30;-1.40;99.90
2855;DHT22;1435;49.472;10.940;2024-01-15T03:13:35;-1.50;99.90
2855;DHT22;1435;49.472;10.940;2024-01-15T03:18:37;-1.50;99.90
2855;DHT22;1435;49.472;10.940;2024-01-15T03:23:40;-1.40;99.90
2855;DHT22;1435;49.472;10.940;2024-01-15T03:28:42;-1.40;99.90
2855;DHT22;1435;49.472;10.940;2024-01-15T03:33:43;-1.40;99.90
2855;DHT22;1435;49.472;10.940;2024-01-15T03:38:46;-1.40;99.90
2855;DHT22;1435;49.472;10.940;2024-01-15T03:43:48;-1.40;99.90
2855;DHT22;1435;49.472;10.940;2024-01-15T03:48:49;-1.30;99.90
2855;DHT22;1435;49.472;10.940;2024-01-15T03:53:52;-1.30;99.90
2855;DHT22;1435;49.472;10.940;2024-01-15T03:58:54;-1.40;99.90
2855;DHT22;1435;49.472;10.940;2024-01-15T04:03:56;-1.30;99.90
2855;DHT22;1435;49.472;10.940;2024-01-15T04:08:59;-1.30;99.90
2855;DHT22;1435;49.472;10.940;2024-01-15T04:14:01;-1.30;99.90
2855;DHT22;1435;49.472;10.940;2024-01-15T04:19:02;-1.30;99.90
2855;DHT22;1435;49.472;10.940;2024-01-15T04:24:06;-1.20;99.90
2855;DHT22;1435;49.472;10.940;2024-01-15T04:29:07;-1.10;99.90
2855;DHT22;1435;49.472;10.940;2024-01-15T04:34:09;-1.00;99.90
2855;DHT22;1435;49.472;10.940;2024-01-15T04:39:12;-1.00;99.90
2855;DHT22;1435;49.472;10.940;2024-01-15T04:44:14;-0.90;99.90
2855;DHT22;1435;49.472;10.940;2024-01-15T04:49:15;-1.10;99.90
2855;DHT22;1435;49.472;10.940;2024-01-15T04:54:18;-1.10;99.90
2855;DHT22;1435;49.472;10.940;2024-01-15T04:59:21;-1.00;99.90
2855;DHT22;1435;49.472;10.940;2024-01-15T05:04:22;-1.00;99.90
2855;DHT22;1435;49.472;10.940;2024-01-15T05:09:26;-0.90;99.90
2855;DHT22;1435;49.472;10.940;2024-01-15T05:14:29;-1.00;99.90
2855;DHT22;1435;49.472;10.940;2024-01-15T05:19:30;-1.00;99.90
2855;DHT22;1435;49.472;10.940;2024-01-15T05:24:33;-0.90;99.90
2855;DHT22;1435;49.472;10.940;2024-01-15T05:29:35;-0.80;99.90
2855;DHT22;1435;49.472;10.940;2024-01-15T05:34:36;-0.70;99.90
2855;DHT22;1435;49.472;10.940;2024-01-15T05:39:39;-0.60;99.90
2855;DHT22;1435;49.472;10.940;2024-01-15T05:44:41;-0.50;99.90
2855;DHT22;1435;49.472;10.940;2024-01-15T05:49:43;-0.40;99.90
2855;DHT22;1435;49.472;10.940;2024-01-15T05:54:46;-0.30;99.90
2855;DHT22;1435;49.472;10.940;2024-01-15T05:59:47;-0.30;99.90
2855;DHT22;1435;49.472;10.940;2024-01-15T06:04:49;-0.20;99.90
2855;DHT22;1435;49.472;10.940;2024-01-15T06:09:52;-0.30;99.90
2855;DHT22;1435;49.472;10.940;2024-01-15T06:14:54;-0.20;99.90
2855;DHT22;1435;49.472;10.940;2024-01-15T06:19:55;-0.20;99.90
2855;DHT22;1435;49.472;10.940;2024-01-15T06:24:58;-0.20;99.90
2855;DHT22;1435;49.472;10.940;2024-01-15T06:30:00;-0.20;99.90
2855;DHT22;1435;49.472;10.940;2024-01-15T06:35:02;-0.20;99.90
2855;DHT22;1435;49.472;10.940;2024-01-15T06:40:06;-0.20;99.90
2855;DHT22;1435;49.472;10.940;2024-01-15T06:45:09;-0.20;99.90
2855;DHT22;1435;49.472;10.940;2024-01-15T06:50:10;-0.30;99.90
2855;DHT22;1435;49.472;10.940;2024-01-15T06:55:13;-0.20;99.90
2855;DHT22;1435;49.472;10.940;2024-01-15T07:00:16;-0.30;99.90
2855;DHT22;1435;49.472;10.940;2024-01-15T07:05:20;-0.20;99.90
2855;DHT22;1435;49.472;10.940;2024-01-15T07:10:23;-0.10;99.90
2855;DHT22;1435;49.472;10.940;2024-01-15T07:15:25;-0.20;99.90
2855;DHT22;1435;49.472;10.940;2024-01-15T07:20:26;-0.10;99.90
2855;DHT22;1435;49.472;10.940;2024-01-15T07:25:29;0.00;99.90
2855;DHT22;1435;49.472;10.940;2024-01-15T07:30:32;0.10;99.90
2855;DHT22;1435;49.472;10.940;2024-01-15T07:35:34;-0.10;99.90
2855;DHT22;1435;49.472;10.940;2024-01-15T07:40:37;-0.10;99.90
2855;DHT22;1435;49.472;10.940;2024-01-15T07:45:39;-0.10;99.90
2855;DHT22;1435;49.472;10.940;2024-01-15T07:50:40;0.00;99.90
2855;DHT22;1435;49.472;10.940;2024-01-15T07:55:43;0.00;99.90
2855;DHT22;1435;49.472;10.940;2024-01-15T08:00:46;0.10;99.90
2855;DHT22;1435;49.472;10.940;2024-01-15T08:05:48;0.00;99.90
2855;DHT22;1435;49.472;10.940;2024-01-15T08:10:54;0.10;99.90
2855;DHT22;1435;49.472;10.940;2024-01-15T08:15:56;0.20;99.90
2855;DHT22;1435;49.472;10.940;2024-01-15T08:20:57;0.10;99.90
2855;DHT22;1435;49.472;10.940;2024-01-15T08:26:00;0.10;99.90
2855;DHT22;1435;49.472;10.940;2024-01-15T08:31:02;0.20;99.90
2855;DHT22;1435;49.472;10.940;2024-01-15T08:36:04;0.10;99.90
2855;DHT22;1435;49.472;10.940;2024-01-15T08:41:07;0.20;99.90
2855;DHT22;1435;49.472;10.940;2024-01-15T08:46:09;0.20;99.90
2855;DHT22;1435;49.472;10.940;2024-01-15T08:51:11;0.20;99.90
2855;DHT22;1435;49.472;10.940;2024-01-15T08:56:14;0.30;99.90
2855;DHT22;1435;49.472;10.940;2024-01-15T09:01:15;0.30;99.90
2855;DHT22;1435;49.472;10.940;2024-01-15T09:06:17;0.40;99.90
2855;DHT22;1435;49.472;10.940;2024-01-15T09:11:20;0.50;99.90
2855;DHT22;1435;49.472;10.940;2024-01-15T09:16:22;0.50;99.90
2855;DHT22;1435;49.472;10.940;2024-01-15T09:21:24;0.50;99.90
2855;DHT22;1435;49.472;10.940;2024-01-15T09:26:27;0.60;99.90
2855;DHT22;1435;49.472;10.940;2024-01-15T09:31:28;0.60;99.90
2855;DHT22;1435;49.472;10.940;2024-01-15T09:36:30;0.60;99.90
2855;DHT22;1435;49.472;10.940;2024-01-15T09:41:33;0.60;99.90
2855;DHT22;1435;49.472;10.940;2024-01-15T09:46:35;0.60;99.90
2855;DHT22;1435;49.472;10.940;2024-01-15T09:51:37;0.70;99.90
2855;DHT22;1435;49.472;10.940;2024-01-15T09:56:41;0.70;99.90
2855;DHT22;1435;49.472;10.940;2024-01-15T10:01:44;0.70;99.90
2855;DHT22;1435;49.472;10.940;2024-01-15T10:06:46;0.60;99.90
2855;DHT22;1435;49.472;10.940;2024-01-15T10:11:50;0.80;99.90
2855;DHT22;1435;49.472;10.940;2024-01-15T10:16:51;0.80;99.90
2855;DHT22;1435;49.472;10.940;2024-01-15T10:21:53;0.80;99.90
2855;DHT22;1435;49.472;10.940;2024-01-15T10:27:05;0.90;99.90
2855;DHT22;1435;49.472;10.940;2024-01-15T10:32:07;1.00;99.90
2855;DHT22;1435;49.472;10.940;2024-01-15T10:37:10;0.80;99.90
2855;DHT22;1435;49.472;10.940;2024-01-15T10:42:13;0.90;99.90
2855;DHT22;1435;49.472;10.940;2024-01-15T10:47:14;0.80;99.90
2855;DHT22;1435;49.472;10.940;2024-01-15T10:52:17;0.90;99.90
2855;DHT22;1435;49.472;10.940;2024-01-15T10:57:20;1.00;99.90
2855;DHT22;1435;49.472;10.940;2024-01-15T11:02:23;1.00;99.90
2855;DHT22;1435;49.472;10.940;2024-01-15T11:07:26;0.80;99.90
2855;DHT22;1435;49.472;10.940;2024-01-15T11:12:29;0.90;99.90
2855;DHT22;1435;49.472;10.940;2024-01-15T11:17:57;0.90;99.90
2855;DHT22;1435;49.472;10.940;2024-01-15T11:22:59;1.00;99.90
2855;DHT22;1435;49.472;10.940;2024-01-15T11:28:03;1.00;99.90
2855;DHT22;1435;49.472;10.940;2024-01-15T11:33:05;1.10;99.90
2855;DHT22;1435;49.472;10.940;2024-01-15T11:38:07;1.20;99.90
2855;DHT22;1435;49.472;10.940;2024-01-15T11:43:10;1.20;99.90
2855;DHT22;1435;49.472;10.940;2024-01-15T11:48:14;1.20;99.90
2855;DHT22;1435;49.472;10.940;2024-01-15T11:53:32;1.20;99.90
2855;DHT22;1435;49.472;10.940;2024-01-15T11:58:36;1.10;99.90
2855;DHT22;1435;49.472;10.940;2024-01-15T12:03:38;1.20;99.90
2855;DHT22;1435;49.472;10.940;2024-01-15T12:08:40;1.30;99.90
2855;DHT22;1435;49.472;10.940;2024-01-15T12:13:43;1.50;99.90
2855;DHT22;1435;49.472;10.940;2024-01-15T12:18:45;1.50;99.90
2855;DHT22;1435;49.472;10.940;2024-01-15T12:23:46;1.40;99.90
2855;DHT22;1435;49.472;10.940;2024-01-15T12:28:51;1.40;99.90
2855;DHT22;1435;49.472;10.940;2024-01-15T12:33:52;1.40;99.90
2855;DHT22;1435;49.472;10.940;2024-01-15T12:38:59;1.30;99.90
2855;DHT22;1435;49.472;10.940;2024-01-15T12:44:02;1.50;99.90
2855;DHT22;1435;49.472;10.940;2024-01-15T12:49:04;1.50;99.90
2855;DHT22;1435;49.472;10.940;2024-01-15T12:54:05;1.60;99.90
2855;DHT22;1435;49.472;10.940;2024-01-15T12:59:08;1.60;99.90
2855;DHT22;1435;49.472;10.940;2024-01-15T13:04:10;1.70;99.90
2855;DHT22;1435;49.472;10.940;2024-01-15T13:09:12;1.60;99.90
2855;DHT22;1435;49.472;10.940;2024-01-15T13:14:16;1.70;99.90
2855;DHT22;1435;49.472;10.940;2024-01-15T13:19:17;1.80;99.90
2855;DHT22;1435;49.472;10.940;2024-01-15T13:24:19;1.80;99.90
2855;DHT22;1435;49.472;10.940;2024-01-15T13:29:22;1.70;99.90
2855;DHT22;1435;49.472;10.940;2024-01-15T13:34:24;1.60;99.90
2855;DHT22;1435;49.472;10.940;2024-01-15T13:39:26;1.50;99.90
2855;DHT22;1435;49.472;10.940;2024-01-15T13:44:29;1.60;99.90
2855;DHT22;1435;49.472;10.940;2024-01-15T13:49:30;1.60;99.90
2855;DHT22;1435;49.472;10.940;2024-01-15T13:54:34;1.40;99.90
2855;DHT22;1435;49.472;10.940;2024-01-15T13:59:37;1.60;99.90
2855;DHT22;1435;49.472;10.940;2024-01-15T14:04:39;1.50;99.90
2855;DHT22;1435;49.472;10.940;2024-01-15T14:09:41;1.50;99.90
2855;DHT22;1435;49.472;10.940;2024-01-15T14:14:44;1.50;99.90
2855;DHT22;1435;49.472;10.940;2024-01-15T14:19:46;1.60;99.90
2855;DHT22;1435;49.472;10.940;2024-01-15T14:24:48;1.50;99.90
2855;DHT22;1435;49.472;10.940;2024-01-15T14:29:51;1.60;99.90
2855;DHT22;1435;49.472;10.940;2024-01-15T14:34:53;1.50;99.90
2855;DHT22;1435;49.472;10.940;2024-01-15T14:39:54;1.60;99.90
2855;DHT22;1435;49.472;10.940;2024-01-15T14:44:57;1.60;99.90
2855;DHT22;1435;49.472;10.940;2024-01-15T14:49:59;1.60;99.90
2855;DHT22;1435;49.472;10.940;2024-01-15T14:55:01;1.80;99.90
2855;DHT22;1435;49.472;10.940;2024-01-15T15:00:05;1.80;99.90
2855;DHT22;1435;49.472;10.940;2024-01-15T15:05:09;1.80;99.90
2855;DHT22;1435;49.472;10.940;2024-01-15T15:10:13;1.80;99.90
2855;DHT22;1435;49.472;10.940;2024-01-15T15:15:16;1.60;99.90
2855;DHT22;1435;49.472;10.940;2024-01-15T15:20:18;1.40;99.90
2855;DHT22;1435;49.472;10.940;2024-01-15T15:25:20;1.30;99.90
2855;DHT22;1435;49.472;10.940;2024-01-15T15:30:23;1.20;99.90
2855;DHT22;1435;49.472;10.940;2024-01-15T15:35:25;1.30;99.90
2855;DHT22;1435;49.472;10.940;2024-01-15T15:40:27;1.10;99.90
2855;DHT22;1435;49.472;10.940;2024-01-15T15:45:30;1.00;99.90
2855;DHT22;1435;49.472;10.940;2024-01-15T15:50:32;1.00;99.90
2855;DHT22;1435;49.472;10.940;2024-01-15T15:55:33;0.90;99.90
2855;DHT22;1435;49.472;10.940;2024-01-15T16:00:38;0.90;99.90
2855;DHT22;1435;49.472;10.940;2024-01-15T16:05:39;0.90;99.90
2855;DHT22;1435;49.472;10.940;2024-01-15T16:10:41;0.90;99.90
2855;DHT22;1435;49.472;10.940;2024-01-15T16:15:44;0.80;99.90
2855;DHT22;1435;49.472;10.940;2024-01-15T16:20:46;0.90;99.90
2855;DHT22;1435;49.472;10.940;2024-01-15T16:25:48;1.00;99.90
2855;DHT22;1435;49.472;10.940;2024-01-15T16:30:51;1.00;99.90
2855;DHT22;1435;49.472;10.940;2024-01-15T16:35:52;1.10;99.90
2855;DHT22;1435;49.472;10.940;2024-01-15T16:40:54;1.10;99.90
2855;DHT22;1435;49.472;10.940;2024-01-15T16:45:57;1.10;99.90
2855;DHT22;1435;49.472;10.940;2024-01-15T16:50:59;1.10;99.90
2855;DHT22;1435;49.472;10.940;2024-01-15T16:56:01;1.10;99.90
2855;DHT22;1435;49.472;10.940;2024-01-15T17:01:05;1.10;99.90
2855;DHT22;1435;49.472;10.940;2024-01-15T17:06:08;1.10;99.90
2855;DHT22;1435;49.472;10.940;2024-01-15T17:11:09;1.00;99.90
2855;DHT22;1435;49.472;10.940;2024-01-15T17:16:13;1.00;99.90
2855;DHT22;1435;49.472;10.940;2024-01-15T17:21:14;1.10;99.90
2855;DHT22;1435;49.472;10.940;2024-01-15T17:26:16;1.00;99.90
2855;DHT22;1435;49.472;10.940;2024-01-15T17:31:20;1.00;99.90
2855;DHT22;1435;49.472;10.940;2024-01-15T17:36:22;1.00;99.90
2855;DHT22;1435;49.472;10.940;2024-01-15T17:41:24;0.90;99.90
2855;DHT22;1435;49.472;10.940;2024-01-15T17:46:27;1.10;99.90
2855;DHT22;1435;49.472;10.940;2024-01-15T17:51:30;1.10;99.90
2855;DHT22;1435;49.472;10.940;2024-01-15T17:56:31;1.00;99.90
2855;DHT22;1435;49.472;10.940;2024-01-15T18:01:34;1.20;99.90
2855;DHT22;1435;49.472;10.940;2024-01-15T18:06:36;1.10;99.90
2855;DHT22;1435;49.472;10.940;2024-01-15T18:11:38;1.10;99.90
2855;DHT22;1435;49.472;10.940;2024-01-15T18:16:41;1.10;99.90
2855;DHT22;1435;49.472;10.940;2024-01-15T18:21:46;1.00;99.90
2855;DHT22;1435;49.472;10.940;2024-01-15T18:26:50;1.00;99.90
2855;DHT22;1435;49.472;10.940;2024-01-15T18:31:53;1.10;99.90
2855;DHT22;1435;49.472;10.940;2024-01-15T18:36:54;1.10;99.90
2855;DHT22;1435;49.472;10.940;2024-01-15T18:41:56;1.10;99.90
2855;DHT22;1435;49.472;10.940;2024-01-15T18:46:59;1.10;99.90
2855;DHT22;1435;49.472;10.940;2024-01-15T18:52:01;1.00;99.90
2855;DHT22;1435;49.472;10.940;2024-01-15T18:57:03;1.00;99.90
2855;DHT22;1435;49.472;10.940;2024-01-15T19:02:07;1.00;99.90
2855;DHT22;1435;49.472;10.940;2024-01-15T19:07:08;1.00;99.90
2855;DHT22;1435;49.472;10.940;2024-01-15T19:12:10;1.00;99.90
2855;DHT22;1435;49.472;10.940;2024-01-15T19:17:13;1.10;99.90
2855;DHT22;1435;49.472;10.940;2024-01-15T19:22:15;1.10;99.90
2855;DHT22;1435;49.472;10.940;2024-01-15T19:27:17;1.10;99.90
2855;DHT22;1435;49.472;10.940;2024-01-15T19:32:20;1.00;99.90
2855;DHT22;1435;49.472;10.940;2024-01-15T19:37:22;0.90;99.90
2855;DHT22;1435;49.472;10.940;2024-01-15T19:42:25;1.00;99.90
2855;DHT22;1435;49.472;10.940;2024-01-15T19:47:28;1.00;99.90
2855;DHT22;1435;49.472;10.940;2024-01-15T19:52:30;1.20;99.90
2855;DHT22;1435;49.472;10.940;2024-01-15T19:57:32;1.10;99.90
2855;DHT22;1435;49.472;10.940;2024-01-15T20:02:35;1.20;99.90
2855;DHT22;1435;49.472;10.940;2024-01-15T20:07:36;1.10;99.90
2855;DHT22;1435;49.472;10.940;2024-01-15T20:12:38;1.00;99.90
2855;DHT22;1435;49.472;10.940;2024-01-15T20:17:42;1.00;99.90
2855;DHT22;1435;49.472;10.940;2024-01-15T20:22:43;1.00;99.90
2855;DHT22;1435;49.472;10.940;2024-01-15T20:27:45;1.10;99.90
2855;DHT22;1435;49.472;10.940;2024-01-15T20:32:48;1.20;99.90
2855;DHT22;1435;49.472;10.940;2024-01-15T20:37:51;1.10;99.90
2855;DHT22;1435;49.472;10.940;2024-01-15T20:42:55;1.00;99.90
2855;DHT22;1435;49.472;10.940;2024-01-15T20:47:58;1.00;99.90
2855;DHT22;1435;49.472;10.940;2024-01-15T20:53:00;1.00;99.90
2855;DHT22;1435;49.472;10.940;2024-01-15T20:58:02;1.00;99.90
2855;DHT22;1435;49.472;10.940;2024-01-15T21:03:07;0.90;99.90
2855;DHT22;1435;49.472;10.940;2024-01-15T21:08:09;0.90;99.90
2855;DHT22;1435;49.472;10.940;2024-01-15T21:13:11;0.90;99.90
2855;DHT22;1435;49.472;10.940;2024-01-15T21:18:14;0.90;99.90
2855;DHT22;1435;49.472;10.940;2024-01-15T21:23:17;0.90;99.90
2855;DHT22;1435;49.472;10.940;2024-01-15T21:28:18;0.90;99.90
2855;DHT22;1435;49.472;10.940;2024-01-15T21:33:21;1.00;99.90
2855;DHT22;1435;49.472;10.940;2024-01-15T21:38:23;1.00;99.90
2855;DHT22;1435;49.472;10.940;2024-01-15T21:43:25;1.00;99.90
2855;DHT22;1435;49.472;10.940;2024-01-15T21:48:28;0.90;99.90
2855;DHT22;1435;49.472;10.940;2024-01-15T21:53:29;0.90;99.90
2855;DHT22;1435;49.472;10.940;2024-01-15T21:58:31;0.90;99.90
2855;DHT22;1435;49.472;10.940;2024-01-15T22:03:34;0.90;99.90
2855;DHT22;1435;49.472;10.940;2024-01-15T22:08:36;0.90;99.90
2855;DHT22;1435;49.472;10.940;2024-01-15T22:13:38;1.00;99.90
2855;DHT22;1435;49.472;10.940;2024-01-15T22:18:41;1.00;99.90
2855;DHT22;1435;49.472;10.940;2024-01-15T22:23:43;1.00;99.90
2855;DHT22;1435;49.472;10.940;2024-01-15T22:28:45;1.00;99.90
2855;DHT22;1435;49.472;10.940;2024-01-15T22:33:48;1.00;99.90
2855;DHT22;1435;49.472;10.940;2024-01-15T22:38:49;1.00;99.90
2855;DHT22;1435;49.472;10.940;2024-01-15T22:43:51;1.10;99.90
2855;DHT22;1435;49.472;10.940;2024-01-15T22:48:54;1.20;99.90
2855;DHT22;1435;49.472;10.940;2024-01-15T22:53:56;1.10;99.90
2855;DHT22;1435;49.472;10.940;2024-01-15T22:58:57;1.10;99.90
2855;DHT22;1435;49.472;10.940;2024-01-15T23:04:01;1.20;99.90
2855;DHT22;1435;49.472;10.940;2024-01-15T23:09:02;1.10;99.90
2855;DHT22;1435;49.472;10.940;2024-01-15T23:14:04;1.00;99.90
2855;DHT22;1435;49.472;10.940;2024-01-15T23:19:07;1.10;99.90
2855;DHT22;1435;49.472;10.940;2024-01-15T23:24:09;1.10;99.90
2855;DHT22;1435;49.472;10.940;2024-01-15T23:29:10;0.90;99.90
2855;DHT22;1435;49.472;10.940;2024-01-15T23:34:13;0.90;99.90
2855;DHT22;1435;49.472;10.940;2024-01-15T23:39:15;0.80;99.90
2855;DHT22;1435;49.472;10.940;2024-01-15T23:44:17;0.80;99.90
2855;DHT22;1435;49.472;10.940;2024-01-15T23:49:20;0.80;99.90
2855;DHT22;1435;49.472;10.940;2024-01-15T23:54:21;0.80;99.90
2855;DHT22;1435;49.472;10.940;2024-01-15T23:59:25;0.70;99.90
